首页
METAR-TAF:

METAR-TAF

机场 :

伯灵顿, 艾奥瓦州, 美国

纬度: 40-46-22N, 经度: 091-07-31W, 海拔: 212米

当前天气观测

该预报发布于34分钟前的17:53 UTC
风速4节,风向西
温度 28°C
湿度 66%
气压 1009 hPa
能見度: 16.1公里
天空无云

METAR: KBRL 041753Z AUTO 28004KT 10SM CLR 28/21 A2979 RMK AO2 SLP081 T02780206 10283 20206 58010

时间: 13:27 (18:27 UTC)

预报

该预报发布于1小时和7分钟前的17:20 UTC
预报有效从04日的 18点(UTC)到 05日的 18点(UTC)
风速7节,风向西转西南
能見度: 10公里
天空无云
从 05日的 0100点(UTC)
风速3节,风向多变
能見度: 10公里
散云层高于25000英尺
从 05日的 1200点(UTC)
风速6节,风向西
能見度: 10公里
多云层高于25000英尺

TAF: KBRL 041720Z 0418/0518 24007KT P6SM SKC FM050100 VRB03KT P6SM SCT250 FM051200 26006KT P6SM BKN250

超过4000个机场的气象观测和天气预报(METAR&TAF报告)。

可查询的气象台以黄色和红色小点在地图上表示。

将鼠标移到小点上方,可查看气象台名称。

然后点击查看天气观测和预报。

如需切换地图:点击带黑十字的绿色按钮放大地图;点击带横线的绿色按钮缩小地图;或者点击绿色箭头查看邻近地区的地图。


METAR-TAF: